createdAt,value
2018-09-08T00:01:29.762Z,18.09
2018-09-08T00:06:28.271Z,18.02
2018-09-08T00:11:21.334Z,17.97
2018-09-08T00:16:19.547Z,17.90
2018-09-08T00:21:17.889Z,17.81
2018-09-08T00:26:16.346Z,17.65
2018-09-08T00:31:12.806Z,17.56
2018-09-08T00:36:05.379Z,17.53
2018-09-08T00:40:57.977Z,17.42
2018-09-08T00:45:50.636Z,17.21
2018-09-08T00:50:43.239Z,17.16
2018-09-08T00:55:35.843Z,17.24
2018-09-08T01:00:28.434Z,17.25
2018-09-08T01:05:21.205Z,17.23
2018-09-08T01:10:13.887Z,17.19
2018-09-08T01:15:06.946Z,17.12
2018-09-08T01:19:59.523Z,17.04
2018-09-08T01:24:52.120Z,17.02
2018-09-08T01:29:44.661Z,16.84
2018-09-08T01:34:37.253Z,16.61
2018-09-08T01:39:29.823Z,16.51
2018-09-08T01:44:22.379Z,16.52
2018-09-08T01:49:14.941Z,16.42
2018-09-08T01:54:07.888Z,16.47
2018-09-08T01:59:00.470Z,16.30
2018-09-08T02:03:53.065Z,16.20
2018-09-08T02:08:45.644Z,16.13
2018-09-08T02:13:38.290Z,16.18
2018-09-08T02:18:30.894Z,16.24
2018-09-08T02:23:23.612Z,16.32
2018-09-08T02:28:16.132Z,16.40
2018-09-08T02:33:08.723Z,16.39
2018-09-08T02:38:01.277Z,16.32
2018-09-08T02:42:53.855Z,16.20
2018-09-08T02:47:46.430Z,16.08
2018-09-08T02:52:37.755Z,16.09
2018-09-08T02:57:29.063Z,16.04
2018-09-08T03:02:20.387Z,15.91
2018-09-08T03:07:13.055Z,15.69
2018-09-08T03:12:04.384Z,15.49
2018-09-08T03:16:55.671Z,15.28
2018-09-08T03:21:47.046Z,15.23
2018-09-08T03:26:38.370Z,15.21
2018-09-08T03:31:29.716Z,15.13
2018-09-08T03:36:21.062Z,15.10
2018-09-08T03:41:12.409Z,15.15
2018-09-08T03:46:03.905Z,15.24
2018-09-08T03:50:55.219Z,15.33
2018-09-08T03:55:46.567Z,15.41
2018-09-08T04:00:37.890Z,15.45
2018-09-08T04:05:30.585Z,15.39
2018-09-08T04:10:23.322Z,15.30
2018-09-08T04:15:15.912Z,15.26
2018-09-08T04:20:08.542Z,15.22
2018-09-08T04:25:01.492Z,15.17
2018-09-08T04:29:54.279Z,15.19
2018-09-08T04:34:46.860Z,15.20
2018-09-08T04:39:39.499Z,15.18
2018-09-08T04:44:32.062Z,15.15
2018-09-08T04:49:24.702Z,15.11
2018-09-08T04:54:17.405Z,15.09
2018-09-08T04:59:09.958Z,14.89
2018-09-08T05:04:02.519Z,14.72
2018-09-08T05:08:55.170Z,14.78
2018-09-08T05:13:47.769Z,14.77
2018-09-08T05:18:40.377Z,14.59
2018-09-08T05:23:33.037Z,14.52
2018-09-08T05:28:25.687Z,14.48
2018-09-08T05:33:18.213Z,14.50
2018-09-08T05:38:10.778Z,14.48
2018-09-08T05:43:03.455Z,14.47
2018-09-08T05:47:56.054Z,14.49
2018-09-08T05:52:48.620Z,14.51
2018-09-08T05:57:41.194Z,14.54
2018-09-08T06:02:33.825Z,14.60
2018-09-08T06:07:26.543Z,14.67
2018-09-08T06:12:19.167Z,14.71
2018-09-08T06:17:11.774Z,14.82
2018-09-08T06:22:04.338Z,14.94
2018-09-08T06:26:57.027Z,15.04
2018-09-08T06:31:49.658Z,15.14
2018-09-08T06:36:42.547Z,15.33
2018-09-08T06:41:35.106Z,15.51
2018-09-08T06:46:27.650Z,16.16
2018-09-08T06:51:20.241Z,16.74
2018-09-08T06:56:12.767Z,16.90
2018-09-08T07:01:05.499Z,16.96
2018-09-08T07:05:58.215Z,16.92
2018-09-08T07:10:50.824Z,17.40
2018-09-08T07:15:43.496Z,17.94
2018-09-08T07:20:36.175Z,18.34
2018-09-08T07:25:28.812Z,18.45
2018-09-08T07:30:21.352Z,18.32
2018-09-08T07:35:13.967Z,18.50
2018-09-08T07:40:06.517Z,18.42
2018-09-08T07:44:59.272Z,18.55
2018-09-08T07:49:52.918Z,18.74
2018-09-08T07:54:45.517Z,18.74
2018-09-08T07:59:38.257Z,18.52
2018-09-08T08:04:30.863Z,18.43
2018-09-08T08:09:23.526Z,18.34
2018-09-08T08:14:16.114Z,18.35
2018-09-08T08:19:09.058Z,18.47
2018-09-08T08:24:01.724Z,18.44
2018-09-08T08:28:54.310Z,18.44
2018-09-08T08:33:46.905Z,18.55
2018-09-08T08:38:39.729Z,18.80
2018-09-08T08:43:32.499Z,19.13
2018-09-08T08:48:25.108Z,19.42
2018-09-08T08:53:35.458Z,19.45
2018-09-08T08:58:28.015Z,19.60
2018-09-08T09:03:20.642Z,19.78
2018-09-08T09:08:13.255Z,19.71
2018-09-08T09:13:05.938Z,19.86
2018-09-08T09:17:58.691Z,19.95
2018-09-08T09:23:08.911Z,20.09
2018-09-08T09:28:01.547Z,20.02
2018-09-08T09:32:54.332Z,20.11
2018-09-08T09:37:46.911Z,20.27
2018-09-08T09:42:39.581Z,20.48
2018-09-08T09:47:32.406Z,20.65
2018-09-08T09:52:25.049Z,20.58
2018-09-08T09:57:17.754Z,20.82
2018-09-08T10:02:44.343Z,21.10
2018-09-08T10:07:36.954Z,20.99
2018-09-08T10:12:29.611Z,21.00
2018-09-08T10:17:22.260Z,21.01
2018-09-08T10:22:14.871Z,21.23
2018-09-08T10:27:07.459Z,21.17
2018-09-08T10:32:00.103Z,21.12
2018-09-08T10:36:53.066Z,21.20
2018-09-08T10:41:45.681Z,21.06
2018-09-08T10:46:38.368Z,21.14
2018-09-08T10:53:40.340Z,21.14
2018-09-08T10:58:32.918Z,21.56
2018-09-08T11:03:25.499Z,21.93
2018-09-08T11:08:18.092Z,21.86
2018-09-08T11:13:10.676Z,21.88
2018-09-08T11:18:03.288Z,21.72
2018-09-08T11:22:55.994Z,21.96
2018-09-08T11:27:48.592Z,22.13
2018-09-08T11:32:41.240Z,22.27
2018-09-08T11:37:33.851Z,22.61
2018-09-08T11:42:26.517Z,22.85
2018-09-08T11:47:19.056Z,22.94
2018-09-08T11:52:11.627Z,23.09
2018-09-08T11:57:04.403Z,23.06
2018-09-08T12:01:57.094Z,22.65
2018-09-08T12:06:49.647Z,22.49
2018-09-08T12:11:42.289Z,22.52
2018-09-08T12:16:34.889Z,22.62
2018-09-08T12:21:27.571Z,22.83
2018-09-08T12:26:20.155Z,23.15
2018-09-08T12:31:12.766Z,23.15
2018-09-08T12:36:06.136Z,23.22
2018-09-08T12:40:58.759Z,23.28
2018-09-08T12:45:51.355Z,23.16
2018-09-08T12:50:43.869Z,23.24
2018-09-08T12:55:36.483Z,23.59
2018-09-08T13:00:29.166Z,23.77
2018-09-08T13:05:21.683Z,23.50
2018-09-08T13:10:14.255Z,23.09
2018-09-08T13:15:06.936Z,23.05
2018-09-08T13:20:00.007Z,23.11
2018-09-08T13:24:53.007Z,23.14
2018-09-08T13:29:45.608Z,23.34
2018-09-08T13:34:38.449Z,23.38
2018-09-08T13:39:31.017Z,23.08
2018-09-08T13:44:23.618Z,22.88
2018-09-08T13:49:16.226Z,22.71
2018-09-08T13:54:09.058Z,22.95
2018-09-08T13:59:02.042Z,23.25
2018-09-08T14:03:54.672Z,23.50
2018-09-08T14:08:47.234Z,23.67
2018-09-08T14:13:39.908Z,23.59
2018-09-08T14:18:32.592Z,23.74
2018-09-08T14:23:25.402Z,23.85
2018-09-08T14:28:17.940Z,23.81
2018-09-08T14:33:10.658Z,23.75
2018-09-08T14:38:03.245Z,23.70
2018-09-08T14:42:56.051Z,23.69
2018-09-08T14:47:48.583Z,23.51
2018-09-08T14:52:41.235Z,23.40
2018-09-08T14:57:33.868Z,23.42
2018-09-08T15:02:26.470Z,23.51
2018-09-08T15:07:19.126Z,23.51
2018-09-08T15:12:11.711Z,23.51
2018-09-08T15:17:04.780Z,23.62
2018-09-08T15:21:57.413Z,23.71
2018-09-08T15:26:49.974Z,23.75
2018-09-08T15:31:42.550Z,23.75
2018-09-08T15:36:35.155Z,23.74
2018-09-08T15:41:27.712Z,23.70
2018-09-08T15:46:20.367Z,23.70
2018-09-08T15:51:13.024Z,23.75
2018-09-08T15:56:05.559Z,23.77
2018-09-08T16:00:58.183Z,23.80
2018-09-08T16:05:50.793Z,23.78
2018-09-08T16:10:43.414Z,23.74
2018-09-08T16:15:36.282Z,23.66
2018-09-08T16:20:28.957Z,23.62
2018-09-08T16:25:21.572Z,23.61
2018-09-08T16:30:14.128Z,23.54
2018-09-08T16:35:06.831Z,23.50
2018-09-08T16:39:59.439Z,23.44
2018-09-08T16:44:52.028Z,23.35
2018-09-08T16:49:44.551Z,23.29
2018-09-08T16:54:37.328Z,23.19
2018-09-08T16:59:30.135Z,23.03
2018-09-08T17:04:22.835Z,22.89
2018-09-08T17:09:15.511Z,22.78
2018-09-08T17:14:08.120Z,22.66
2018-09-08T17:19:00.769Z,22.55
2018-09-08T17:23:53.352Z,22.44
2018-09-08T17:28:46.015Z,22.32
2018-09-08T17:33:38.595Z,22.22
2018-09-08T17:38:31.151Z,22.12
2018-09-08T17:43:23.709Z,21.98
2018-09-08T17:48:16.282Z,21.88
2018-09-08T17:53:08.866Z,21.75
2018-09-08T17:58:01.463Z,21.64
2018-09-08T18:02:54.491Z,21.56
2018-09-08T18:07:47.059Z,21.51
2018-09-08T18:12:40.747Z,21.42
2018-09-08T18:17:33.367Z,21.32
2018-09-08T18:22:25.986Z,21.25
2018-09-08T18:27:18.583Z,21.19
2018-09-08T18:32:11.135Z,21.07
2018-09-08T18:37:03.822Z,21.00
2018-09-08T18:41:56.638Z,20.95
2018-09-08T18:46:49.155Z,20.91
2018-09-08T18:51:41.764Z,20.75
2018-09-08T18:56:34.355Z,20.72
2018-09-08T19:01:27.017Z,20.71
2018-09-08T19:06:36.861Z,20.63
2018-09-08T19:11:29.591Z,20.56
2018-09-08T19:16:22.247Z,20.41
2018-09-08T19:21:14.786Z,20.38
2018-09-08T19:26:07.472Z,20.36
2018-09-08T19:31:00.107Z,20.30
2018-09-08T19:35:52.774Z,20.22
2018-09-08T19:40:46.690Z,20.14
2018-09-08T19:45:39.495Z,20.07
2018-09-08T19:50:32.654Z,20.03
2018-09-08T19:55:25.249Z,19.93
2018-09-08T20:00:17.862Z,19.83
2018-09-08T20:05:10.351Z,19.77
2018-09-08T20:10:02.885Z,19.69
2018-09-08T20:14:55.428Z,19.66
2018-09-08T20:19:48.041Z,19.64
2018-09-08T20:24:40.620Z,19.61
2018-09-08T20:29:33.203Z,19.58
2018-09-08T20:34:26.151Z,19.55
2018-09-08T20:39:18.759Z,19.48
2018-09-08T20:44:11.332Z,19.40
2018-09-08T20:49:04.334Z,19.37
2018-09-08T20:53:56.833Z,19.36
2018-09-08T20:58:49.472Z,19.33
2018-09-08T21:03:42.113Z,19.30
2018-09-08T21:08:36.141Z,19.25
2018-09-08T21:13:28.687Z,19.19
2018-09-08T21:18:21.400Z,19.13
2018-09-08T21:23:13.994Z,19.13
2018-09-08T21:28:06.564Z,19.13
2018-09-08T21:32:59.215Z,19.13
2018-09-08T21:37:51.770Z,19.12
2018-09-08T21:42:44.338Z,19.10
2018-09-08T21:47:36.896Z,19.10
2018-09-08T21:52:29.468Z,19.11
2018-09-08T21:57:22.024Z,19.09
2018-09-08T22:02:14.679Z,19.08
2018-09-08T22:07:07.502Z,19.06
2018-09-08T22:12:00.464Z,19.05
2018-09-08T22:16:53.063Z,19.01
2018-09-08T22:21:45.660Z,18.96
2018-09-08T22:26:38.278Z,18.93
2018-09-08T22:31:31.195Z,18.88
2018-09-08T22:36:24.078Z,18.81
2018-09-08T22:41:16.671Z,18.75
2018-09-08T22:46:09.278Z,18.69
2018-09-08T22:51:01.839Z,18.63
2018-09-08T22:55:54.505Z,18.58
2018-09-08T23:00:47.107Z,18.53
2018-09-08T23:05:39.654Z,18.46
2018-09-08T23:10:32.678Z,18.39
2018-09-08T23:15:25.510Z,18.34
2018-09-08T23:20:21.280Z,18.31
2018-09-08T23:25:13.866Z,18.28
2018-09-08T23:30:06.782Z,18.28
2018-09-08T23:34:59.404Z,18.27
2018-09-08T23:39:51.975Z,18.25
2018-09-08T23:44:44.594Z,18.22
2018-09-08T23:49:37.271Z,18.15
2018-09-08T23:54:29.838Z,18.07
2018-09-08T23:59:22.687Z,17.99
